Spitzerberg Airport LOAS

Flugplatz Daten

Name: Spitzerberg Airport

Ident: LOAS

Lat: 48,10219955

Long: 16,93530083

Platzhöhe: 600 ft

IataCode:

City: Spitzerberg

Metar

2020/08/05 20:00
CZEM 052000Z 33009KT 5SM -RA BR BKN035 OVC045 15/15 A2969 RMK SC6SC2 LOAST STFD OBS/NEXT 061300 UTC SLP054 DENSITY ALT 400FT

Taf

Gewünschte Webcam nicht vorhanden? Dann fügen Sie eine hinzu. Sie wird dann so schnell wie möglich freigeschaltet
Url: Title: